createdAt,value
2018-10-03T00:01:50.540Z,101280.67
2018-10-03T00:04:18.743Z,101279.38
2018-10-03T00:06:46.934Z,101278.91
2018-10-03T00:09:15.096Z,101286.71
2018-10-03T00:11:43.264Z,101281.05
2018-10-03T00:14:11.609Z,101284.53
2018-10-03T00:16:39.782Z,101281.08
2018-10-03T00:19:08.048Z,101283.23
2018-10-03T00:21:36.307Z,101286.71
2018-10-03T00:24:04.426Z,101294.53
2018-10-03T00:26:32.620Z,101296.23
2018-10-03T00:29:00.860Z,101311.03
2018-10-03T00:31:29.052Z,101313.64
2018-10-03T00:33:57.253Z,101311.91
2018-10-03T00:36:25.436Z,101298.48
2018-10-03T00:38:53.644Z,101296.73
2018-10-03T00:41:21.862Z,101309.80
2018-10-03T00:43:50.041Z,101311.94
2018-10-03T00:46:18.217Z,101316.28
2018-10-03T00:48:46.424Z,101309.31
2018-10-03T00:51:14.660Z,101323.67
2018-10-03T00:53:42.849Z,101328.48
2018-10-03T00:56:11.132Z,101323.28
2018-10-03T00:58:39.320Z,101325.88
2018-10-03T01:01:07.504Z,101323.72
2018-10-03T01:03:35.684Z,101318.08
2018-10-03T01:06:03.916Z,101319.80
2018-10-03T01:08:32.074Z,101326.75
2018-10-03T01:11:00.252Z,101321.56
2018-10-03T01:13:28.436Z,101319.83
2018-10-03T01:15:56.612Z,101325.91
2018-10-03T01:18:24.800Z,101319.83
2018-10-03T01:20:53.002Z,101323.31
2018-10-03T01:23:21.176Z,101335.03
2018-10-03T01:25:49.383Z,101336.36
2018-10-03T01:28:17.567Z,101345.46
2018-10-03T01:30:45.748Z,101336.79
2018-10-03T01:33:13.943Z,101334.18
2018-10-03T01:35:42.439Z,101332.00
2018-10-03T01:38:10.635Z,101333.28
2018-10-03T01:40:38.809Z,101329.39
2018-10-03T01:43:07.132Z,101346.77
2018-10-03T01:45:35.353Z,101340.67
2018-10-03T01:48:03.545Z,101338.91
2018-10-03T01:50:31.719Z,101337.20
2018-10-03T01:52:59.905Z,101334.59
2018-10-03T01:55:28.068Z,101338.93
2018-10-03T01:57:56.248Z,101338.06
2018-10-03T02:00:24.440Z,101339.79
2018-10-03T02:02:52.609Z,101343.27
2018-10-03T02:05:20.779Z,101339.78
2018-10-03T02:07:48.967Z,101334.55
2018-10-03T02:10:17.131Z,101348.45
2018-10-03T02:12:45.316Z,101355.84
2018-10-03T02:15:13.520Z,101349.31
2018-10-03T02:17:41.693Z,101347.12
2018-10-03T02:20:10.029Z,101351.94
2018-10-03T02:22:38.224Z,101357.55
2018-10-03T02:25:06.408Z,101359.33
2018-10-03T02:27:34.605Z,101357.58
2018-10-03T02:30:02.848Z,101367.14
2018-10-03T02:32:31.068Z,101359.71
2018-10-03T02:34:59.267Z,101366.64
2018-10-03T02:37:27.476Z,101354.49
2018-10-03T02:39:55.657Z,101360.59
2018-10-03T02:42:23.835Z,101367.53
2018-10-03T02:44:52.039Z,101364.91
2018-10-03T02:47:20.231Z,101372.77
2018-10-03T02:49:48.396Z,101362.34
2018-10-03T02:52:16.596Z,101362.33
2018-10-03T02:54:44.775Z,101371.48
2018-10-03T02:57:12.993Z,101364.06
2018-10-03T02:59:41.176Z,101377.53
2018-10-03T03:02:09.696Z,101375.36
2018-10-03T03:04:37.888Z,101383.63
2018-10-03T03:07:06.081Z,101385.41
2018-10-03T03:09:34.260Z,101387.53
2018-10-03T03:12:02.466Z,101387.98
2018-10-03T03:14:30.645Z,101393.67
2018-10-03T03:16:58.839Z,101398.88
2018-10-03T03:19:27.033Z,101397.59
2018-10-03T03:21:55.189Z,101406.70
2018-10-03T03:24:23.380Z,101410.17
2018-10-03T03:26:51.592Z,101405.84
2018-10-03T03:29:19.744Z,101415.41
2018-10-03T03:31:47.942Z,101419.31
2018-10-03T03:34:16.172Z,101419.30
2018-10-03T03:36:44.333Z,101424.94
2018-10-03T03:39:12.524Z,101420.16
2018-10-03T03:41:41.740Z,101430.17
2018-10-03T03:44:09.920Z,101430.64
2018-10-03T03:46:38.089Z,101433.67
2018-10-03T03:49:06.267Z,101432.37
2018-10-03T03:51:34.441Z,101436.27
2018-10-03T03:54:02.619Z,101437.14
2018-10-03T03:56:30.798Z,101441.94
2018-10-03T03:58:58.974Z,101446.73
2018-10-03T04:01:27.140Z,101440.63
2018-10-03T04:03:55.314Z,101442.36
2018-10-03T04:06:23.488Z,101450.64
2018-10-03T04:08:51.666Z,101443.69
2018-10-03T04:11:19.889Z,101446.71
2018-10-03T04:13:48.051Z,101447.59
2018-10-03T04:16:16.234Z,101454.13
2018-10-03T04:18:44.417Z,101454.55
2018-10-03T04:21:12.597Z,101448.47
2018-10-03T04:23:40.769Z,101455.41
2018-10-03T04:26:08.970Z,101459.34
2018-10-03T04:28:38.198Z,101468.47
2018-10-03T04:31:06.373Z,101477.16
2018-10-03T04:33:34.571Z,101479.77
2018-10-03T04:36:02.769Z,101482.83
2018-10-03T04:38:30.951Z,101483.23
2018-10-03T04:40:59.180Z,101479.34
2018-10-03T04:43:27.369Z,101479.33
2018-10-03T04:45:55.557Z,101484.98
2018-10-03T04:48:24.700Z,101488.48
2018-10-03T04:50:52.876Z,101488.91
2018-10-03T04:53:21.072Z,101487.17
2018-10-03T04:55:49.247Z,101495.00
2018-10-03T04:58:17.432Z,101494.13
2018-10-03T05:00:45.612Z,101499.77
2018-10-03T05:03:13.788Z,101498.47
2018-10-03T05:05:41.966Z,101495.88
2018-10-03T05:08:10.177Z,101498.91
2018-10-03T05:10:38.349Z,101498.89
2018-10-03T05:13:06.580Z,101505.84
2018-10-03T05:15:34.765Z,101517.16
2018-10-03T05:18:02.931Z,101520.20
2018-10-03T05:20:31.113Z,101520.20
2018-10-03T05:22:59.321Z,101517.59
2018-10-03T05:25:27.520Z,101525.86
2018-10-03T05:27:55.758Z,101532.38
2018-10-03T05:30:23.900Z,101543.24
2018-10-03T05:32:52.076Z,101549.77
2018-10-03T05:35:20.270Z,101557.58
2018-10-03T05:37:48.448Z,101558.05
2018-10-03T05:40:16.646Z,101569.73
2018-10-03T05:42:44.821Z,101569.28
2018-10-03T05:45:13.881Z,101576.68
2018-10-03T05:47:42.049Z,101571.96
2018-10-03T05:50:10.234Z,101578.01
2018-10-03T05:52:38.448Z,101590.17
2018-10-03T05:55:10.361Z,101581.89
2018-10-03T05:57:38.644Z,101587.53
2018-10-03T06:00:06.852Z,101590.61
2018-10-03T06:02:35.094Z,101593.63
2018-10-03T06:05:03.273Z,101603.22
2018-10-03T06:07:31.516Z,101603.63
2018-10-03T06:09:59.696Z,101603.18
2018-10-03T06:12:28.044Z,101606.66
2018-10-03T06:14:56.249Z,101615.34
2018-10-03T06:17:24.467Z,101615.38
2018-10-03T06:19:55.895Z,101624.05
2018-10-03T06:22:24.100Z,101624.98
2018-10-03T06:24:55.448Z,101611.95
2018-10-03T06:27:23.645Z,101616.25
2018-10-03T06:29:51.968Z,101611.05
2018-10-03T06:32:21.261Z,101618.92
2018-10-03T06:34:51.495Z,101624.54
2018-10-03T06:37:21.716Z,101628.91
2018-10-03T06:39:49.912Z,101631.96
2018-10-03T06:42:19.150Z,101643.30
2018-10-03T06:44:53.131Z,101642.41
2018-10-03T06:47:21.420Z,101655.02
2018-10-03T06:49:49.628Z,101661.14
2018-10-03T06:52:17.904Z,101665.95
2018-10-03T06:54:46.200Z,101666.78
2018-10-03T06:57:14.469Z,101665.93
2018-10-03T06:59:42.745Z,101674.66
2018-10-03T07:02:14.377Z,101686.87
2018-10-03T07:04:44.640Z,101678.69
2018-10-03T07:07:12.907Z,101681.72
2018-10-03T07:09:41.202Z,101676.49
2018-10-03T07:12:09.384Z,101690.44
2018-10-03T07:14:37.567Z,101690.42
2018-10-03T07:17:06.036Z,101700.89
2018-10-03T07:19:34.221Z,101710.02
2018-10-03T07:22:02.485Z,101716.97
2018-10-03T07:24:30.698Z,101720.03
2018-10-03T07:26:59.925Z,101724.40
2018-10-03T07:29:28.142Z,101721.34
2018-10-03T07:31:56.325Z,101732.20
2018-10-03T07:34:24.524Z,101734.41
2018-10-03T07:36:52.705Z,101740.50
2018-10-03T07:39:20.885Z,101742.23
2018-10-03T07:41:52.715Z,101736.16
2018-10-03T07:44:20.916Z,101747.88
2018-10-03T07:46:49.092Z,101758.77
2018-10-03T07:49:17.259Z,101769.67
2018-10-03T07:51:45.461Z,101764.89
2018-10-03T07:54:13.629Z,101771.42
2018-10-03T07:56:41.832Z,101773.14
2018-10-03T07:59:10.104Z,101777.55
2018-10-03T08:01:38.290Z,101778.84
2018-10-03T08:04:06.487Z,101783.63
2018-10-03T08:06:34.684Z,101781.88
2018-10-03T08:09:03.025Z,101780.11
2018-10-03T08:11:32.251Z,101792.34
2018-10-03T08:14:00.434Z,101792.33
2018-10-03T08:16:28.600Z,101802.31
2018-10-03T08:18:57.856Z,101802.75
2018-10-03T08:21:26.134Z,101808.42
2018-10-03T08:23:55.387Z,101812.77
2018-10-03T08:26:23.838Z,101808.86
2018-10-03T08:28:52.027Z,101804.49
2018-10-03T08:31:20.213Z,101817.20
2018-10-03T08:33:48.532Z,101820.69
2018-10-03T08:36:16.790Z,101815.89
2018-10-03T08:38:45.069Z,101820.22
2018-10-03T08:41:13.137Z,101824.18
2018-10-03T08:43:41.304Z,101831.57
2018-10-03T08:46:09.488Z,101821.11
2018-10-03T08:48:37.880Z,101825.48
2018-10-03T08:51:06.195Z,101828.98
2018-10-03T08:53:34.495Z,101832.46
2018-10-03T08:56:04.753Z,101835.88
2018-10-03T08:58:34.103Z,101833.25
2018-10-03T09:01:02.196Z,101831.56
2018-10-03T09:03:30.433Z,101840.75
2018-10-03T09:05:58.608Z,101843.80
2018-10-03T09:08:33.613Z,101849.89
2018-10-03T09:11:01.812Z,101844.66
2018-10-03T09:13:34.345Z,101849.00
2018-10-03T09:16:02.668Z,101846.39
2018-10-03T09:18:30.929Z,101856.91
2018-10-03T09:21:02.701Z,101857.30
2018-10-03T09:23:30.971Z,101863.84
2018-10-03T09:26:01.212Z,101863.86
2018-10-03T09:28:29.475Z,101863.84
2018-10-03T09:30:57.562Z,101868.22
2018-10-03T09:33:25.797Z,101879.54
2018-10-03T09:35:57.758Z,101879.97
2018-10-03T09:38:25.936Z,101887.82
2018-10-03T09:40:54.108Z,101888.26
2018-10-03T09:43:22.306Z,101890.44
2018-10-03T09:45:50.532Z,101894.36
2018-10-03T09:48:18.708Z,101887.85
2018-10-03T09:50:50.228Z,101895.68
2018-10-03T09:53:18.396Z,101895.25
2018-10-03T09:55:46.573Z,101893.06
2018-10-03T09:58:14.816Z,101900.48
2018-10-03T10:00:48.334Z,101894.80
2018-10-03T10:03:16.464Z,101902.25
2018-10-03T10:05:44.672Z,101913.53
2018-10-03T10:08:12.865Z,101913.98
2018-10-03T10:10:41.100Z,101917.89
2018-10-03T10:13:09.292Z,101910.08
2018-10-03T10:15:37.513Z,101907.92
2018-10-03T10:18:05.947Z,101905.73
2018-10-03T10:20:34.144Z,101904.83
2018-10-03T10:23:02.317Z,101903.97
2018-10-03T10:25:30.508Z,101902.67
2018-10-03T10:27:58.768Z,101908.36
2018-10-03T10:30:26.964Z,101909.20
2018-10-03T10:32:55.289Z,101913.17
2018-10-03T10:35:23.623Z,101914.86
2018-10-03T10:37:51.905Z,101908.73
2018-10-03T10:40:20.204Z,101917.06
2018-10-03T10:42:48.265Z,101924.00
2018-10-03T10:45:16.456Z,101923.11
2018-10-03T10:47:44.681Z,101924.45
2018-10-03T10:50:13.003Z,101937.13
2018-10-03T10:52:41.172Z,101938.00
2018-10-03T10:55:13.960Z,101934.52
2018-10-03T10:57:42.184Z,101940.63
2018-10-03T11:00:10.393Z,101935.81
2018-10-03T11:02:38.599Z,101947.17
2018-10-03T11:05:06.813Z,101944.11
2018-10-03T11:07:35.547Z,101939.77
2018-10-03T11:10:03.760Z,101947.16
2018-10-03T11:12:31.949Z,101938.89
2018-10-03T11:15:00.117Z,101943.23
2018-10-03T11:17:29.393Z,101935.40
2018-10-03T11:19:57.584Z,101936.27
2018-10-03T11:22:25.800Z,101933.62
2018-10-03T11:24:54.122Z,101938.44
2018-10-03T11:27:22.164Z,101927.51
2018-10-03T11:29:50.375Z,101935.34
2018-10-03T11:32:19.558Z,101931.44
2018-10-03T11:34:47.870Z,101931.40
2018-10-03T11:37:17.111Z,101939.27
2018-10-03T11:39:45.314Z,101939.67
2018-10-03T11:42:13.478Z,101938.85
2018-10-03T11:44:41.668Z,101943.22
2018-10-03T11:47:10.023Z,101939.72
2018-10-03T11:49:38.241Z,101936.64
2018-10-03T11:52:06.415Z,101935.73
2018-10-03T11:54:34.648Z,101951.05
2018-10-03T11:57:02.905Z,101945.38
2018-10-03T11:59:31.081Z,101941.48
2018-10-03T12:02:02.877Z,101945.84
2018-10-03T12:04:31.160Z,101948.45
2018-10-03T12:06:59.384Z,101949.71
2018-10-03T12:09:27.618Z,101945.72
2018-10-03T12:11:55.802Z,101932.16
2018-10-03T12:14:23.988Z,101937.03
2018-10-03T12:16:52.221Z,101927.38
2018-10-03T12:19:21.517Z,101924.72
2018-10-03T12:21:49.755Z,101932.55
2018-10-03T12:24:17.953Z,101919.73
2018-10-03T12:26:46.133Z,101921.08
2018-10-03T12:29:14.331Z,101926.69
2018-10-03T12:31:42.529Z,101922.75
2018-10-03T12:34:10.704Z,101925.39
2018-10-03T12:36:40.100Z,101926.31
2018-10-03T12:39:09.396Z,101925.45
2018-10-03T12:41:38.035Z,101925.56
2018-10-03T12:44:06.587Z,101923.39
2018-10-03T12:46:34.797Z,101924.31
2018-10-03T12:49:02.997Z,101919.97
2018-10-03T12:51:31.221Z,101919.56
2018-10-03T12:53:59.413Z,101917.84
2018-10-03T12:56:27.612Z,101914.70
2018-10-03T12:58:55.792Z,101912.09
2018-10-03T13:01:24.094Z,101912.97
2018-10-03T13:03:55.832Z,101911.28
2018-10-03T13:06:29.477Z,101913.41
2018-10-03T13:08:57.692Z,101917.40
2018-10-03T13:11:26.935Z,101925.14
2018-10-03T13:13:55.138Z,101919.47
2018-10-03T13:16:24.348Z,101922.08
2018-10-03T13:18:52.628Z,101927.42
2018-10-03T13:21:20.809Z,101923.99
2018-10-03T13:23:49.006Z,101929.69
2018-10-03T13:26:17.197Z,101930.58
2018-10-03T13:28:46.404Z,101933.61
2018-10-03T13:31:14.585Z,101937.05
2018-10-03T13:33:42.816Z,101935.75
2018-10-03T13:36:11.001Z,101924.81
2018-10-03T13:38:39.204Z,101925.19
2018-10-03T13:41:11.835Z,101920.78
2018-10-03T13:43:40.076Z,101912.05
2018-10-03T13:46:08.297Z,101915.48
2018-10-03T13:48:36.502Z,101917.56
2018-10-03T13:51:04.738Z,101921.91
2018-10-03T13:53:32.923Z,101919.12
2018-10-03T13:56:02.198Z,101917.80
2018-10-03T13:58:30.433Z,101916.59
2018-10-03T14:00:58.727Z,101919.34
2018-10-03T14:03:26.922Z,101916.77
2018-10-03T14:05:58.359Z,101911.16
2018-10-03T14:08:27.680Z,101926.80
2018-10-03T14:10:55.971Z,101924.64
2018-10-03T14:13:24.131Z,101925.61
2018-10-03T14:15:52.316Z,101926.47
2018-10-03T14:18:20.823Z,101932.19
2018-10-03T14:20:48.987Z,101935.23
2018-10-03T14:23:17.192Z,101941.31
2018-10-03T14:25:45.394Z,101939.59
2018-10-03T14:28:13.588Z,101937.86
2018-10-03T14:30:41.780Z,101938.72
2018-10-03T14:33:10.031Z,101940.05
2018-10-03T14:35:38.218Z,101946.16
2018-10-03T14:38:06.765Z,101940.47
2018-10-03T14:40:34.972Z,101928.28
2018-10-03T14:43:03.151Z,101937.48
2018-10-03T14:45:31.332Z,101937.89
2018-10-03T14:47:59.576Z,101939.60
2018-10-03T14:50:27.793Z,101930.45
2018-10-03T14:53:01.573Z,101933.95
2018-10-03T14:55:29.753Z,101932.62
2018-10-03T14:57:57.968Z,101934.00
2018-10-03T15:00:26.208Z,101934.86
2018-10-03T15:02:54.426Z,101937.86
2018-10-03T15:05:22.637Z,101935.69
2018-10-03T15:07:50.887Z,101939.17
2018-10-03T15:10:19.087Z,101936.13
2018-10-03T15:12:47.366Z,101942.23
2018-10-03T15:15:15.510Z,101938.30
2018-10-03T15:17:43.731Z,101948.33
2018-10-03T15:20:11.929Z,101944.04
2018-10-03T15:22:40.297Z,101943.15
2018-10-03T15:25:08.508Z,101947.94
2018-10-03T15:27:36.780Z,101945.72
2018-10-03T15:30:05.416Z,101949.23
2018-10-03T15:32:33.556Z,101948.41
2018-10-03T15:35:01.748Z,101947.95
2018-10-03T15:37:29.956Z,101949.70
2018-10-03T15:39:58.148Z,101947.52
2018-10-03T15:42:26.342Z,101946.23
2018-10-03T15:44:54.528Z,101945.81
2018-10-03T15:47:23.795Z,101940.98
2018-10-03T15:49:51.987Z,101952.34
2018-10-03T15:52:20.190Z,101958.45
2018-10-03T15:54:48.736Z,101953.19
2018-10-03T15:57:16.976Z,101950.16
2018-10-03T15:59:45.251Z,101951.91
2018-10-03T16:02:13.457Z,101951.94
2018-10-03T16:04:41.637Z,101957.56
2018-10-03T16:07:12.585Z,101949.71
2018-10-03T16:09:40.838Z,101954.08
2018-10-03T16:12:09.037Z,101952.34
2018-10-03T16:14:37.243Z,101961.49
2018-10-03T16:17:05.491Z,101959.36
2018-10-03T16:19:33.681Z,101959.77
2018-10-03T16:22:01.907Z,101964.13
2018-10-03T16:24:30.117Z,101966.77
2018-10-03T16:26:58.316Z,101970.70
2018-10-03T16:29:26.551Z,101974.19
2018-10-03T16:31:55.029Z,101979.45
2018-10-03T16:34:23.271Z,101976.37
2018-10-03T16:36:52.301Z,101978.99
2018-10-03T16:39:20.482Z,101976.81
2018-10-03T16:41:51.964Z,101979.45
2018-10-03T16:44:20.189Z,101976.38
2018-10-03T16:46:48.449Z,101983.39
2018-10-03T16:49:16.691Z,101978.14
2018-10-03T16:51:44.875Z,101983.39
2018-10-03T16:54:13.309Z,101986.88
2018-10-03T16:56:41.503Z,101984.25
2018-10-03T16:59:10.755Z,101994.70
2018-10-03T17:01:43.927Z,101998.63
2018-10-03T17:04:12.128Z,101996.47
2018-10-03T17:06:40.334Z,101999.90
2018-10-03T17:09:08.604Z,101999.88
2018-10-03T17:11:37.296Z,102004.27
2018-10-03T17:14:39.987Z,102002.97
2018-10-03T17:17:08.913Z,101999.02
2018-10-03T17:19:37.201Z,102000.70
2018-10-03T17:22:06.448Z,101998.08
2018-10-03T17:24:35.924Z,102001.59
2018-10-03T17:27:04.164Z,102002.84
2018-10-03T17:29:32.353Z,102012.47
2018-10-03T17:32:00.560Z,102015.47
2018-10-03T17:34:28.770Z,102023.20
2018-10-03T17:36:57.177Z,102019.67
2018-10-03T17:39:26.160Z,102024.02
2018-10-03T17:41:56.522Z,102024.95
2018-10-03T17:44:24.971Z,102034.05
2018-10-03T17:46:54.505Z,102031.39
2018-10-03T17:49:22.743Z,102030.11
2018-10-03T17:51:51.004Z,102033.88
2018-10-03T17:54:20.200Z,102040.03
2018-10-03T17:57:01.147Z,102035.69
2018-10-03T17:59:29.312Z,102040.27
2018-10-03T18:01:59.364Z,102044.18
2018-10-03T18:04:29.677Z,102052.34
2018-10-03T18:06:57.917Z,102053.12
2018-10-03T18:09:26.096Z,102059.12
2018-10-03T18:11:54.290Z,102059.20
2018-10-03T18:14:22.494Z,102058.44
2018-10-03T18:16:50.705Z,102068.81
2018-10-03T18:19:18.872Z,102070.11
2018-10-03T18:21:47.049Z,102063.92
2018-10-03T18:24:15.245Z,102071.21
2018-10-03T18:26:43.497Z,102063.36
2018-10-03T18:29:11.765Z,102075.47
2018-10-03T18:31:39.960Z,102074.96
2018-10-03T18:34:08.143Z,102079.09
2018-10-03T18:36:36.584Z,102074.56
2018-10-03T18:39:06.925Z,102081.06
2018-10-03T18:41:35.066Z,102080.97
2018-10-03T18:44:06.476Z,102077.23
2018-10-03T18:46:34.665Z,102078.79
2018-10-03T18:49:02.933Z,102079.61
2018-10-03T18:51:31.115Z,102077.69
2018-10-03T18:53:59.303Z,102082.94
2018-10-03T18:56:28.574Z,102082.70
2018-10-03T18:58:56.781Z,102078.05
2018-10-03T19:01:29.416Z,102081.89
2018-10-03T19:03:57.588Z,102085.88
2018-10-03T19:06:25.805Z,102086.88
2018-10-03T19:08:53.990Z,102086.26
2018-10-03T19:11:22.158Z,102080.27
2018-10-03T19:13:50.458Z,102084.56
2018-10-03T19:16:18.748Z,102086.19
2018-10-03T19:18:46.954Z,102094.83
2018-10-03T19:21:15.185Z,102086.83
2018-10-03T19:23:43.399Z,102083.73
2018-10-03T19:26:11.675Z,102092.11
2018-10-03T19:28:39.875Z,102096.22
2018-10-03T19:31:17.683Z,102095.06
2018-10-03T19:33:46.037Z,102103.80
2018-10-03T19:36:14.291Z,102109.73
2018-10-03T19:38:42.485Z,102109.22
2018-10-03T19:41:10.676Z,102106.14
2018-10-03T19:43:39.145Z,102100.05
2018-10-03T19:46:07.549Z,102108.33
2018-10-03T19:48:35.900Z,102107.97
2018-10-03T19:51:04.117Z,102110.81
2018-10-03T19:53:37.264Z,102111.95
2018-10-03T19:56:06.829Z,102110.69
2018-10-03T19:58:40.786Z,102109.48
2018-10-03T20:01:09.080Z,102110.03
2018-10-03T20:03:37.269Z,102109.14
2018-10-03T20:06:06.736Z,102110.48
2018-10-03T20:08:34.930Z,102108.17
2018-10-03T20:11:03.325Z,102117.86
2018-10-03T20:13:31.517Z,102111.77
2018-10-03T20:15:59.705Z,102115.44
2018-10-03T20:18:27.920Z,102112.27
2018-10-03T20:20:56.117Z,102103.49
2018-10-03T20:23:24.286Z,102102.94
2018-10-03T20:25:52.503Z,102103.27
2018-10-03T20:28:20.759Z,102100.66
2018-10-03T20:30:48.964Z,102110.05
2018-10-03T20:33:17.241Z,102110.60
2018-10-03T20:35:45.780Z,102115.30
2018-10-03T20:38:13.988Z,102114.32
2018-10-03T20:40:48.121Z,102114.41
2018-10-03T20:43:19.185Z,102112.66
2018-10-03T20:45:55.590Z,102113.85
2018-10-03T20:48:24.033Z,102117.33
2018-10-03T20:50:52.211Z,102118.75
2018-10-03T20:53:22.485Z,102111.52
2018-10-03T20:55:51.776Z,102108.98
2018-10-03T20:58:19.976Z,102104.09
2018-10-03T21:00:48.182Z,102109.03
2018-10-03T21:03:17.297Z,102113.14
2018-10-03T21:05:45.675Z,102112.00
2018-10-03T21:08:13.848Z,102116.73
2018-10-03T21:10:42.082Z,102109.95
2018-10-03T21:13:10.260Z,102109.61
2018-10-03T21:15:39.514Z,102109.54
2018-10-03T21:18:07.708Z,102115.67
2018-10-03T21:20:35.895Z,102116.66
2018-10-03T21:23:04.074Z,102115.47
2018-10-03T21:25:32.383Z,102129.99
2018-10-03T21:28:00.559Z,102131.17
2018-10-03T21:30:28.731Z,102131.50
2018-10-03T21:32:58.992Z,102129.80
2018-10-03T21:35:27.164Z,102132.95
2018-10-03T21:37:55.352Z,102123.59
2018-10-03T21:40:23.620Z,102127.29
2018-10-03T21:42:51.801Z,102130.18
2018-10-03T21:45:19.984Z,102125.77
2018-10-03T21:47:48.176Z,102132.31
2018-10-03T21:50:16.374Z,102137.20
2018-10-03T21:52:45.692Z,102134.45
2018-10-03T21:55:13.883Z,102131.91
2018-10-03T21:57:42.103Z,102134.09
2018-10-03T22:00:10.330Z,102134.02
2018-10-03T22:02:38.937Z,102133.50
2018-10-03T22:05:08.959Z,102129.01
2018-10-03T22:07:37.617Z,102129.95
2018-10-03T22:10:05.950Z,102135.80
2018-10-03T22:12:34.202Z,102132.91
2018-10-03T22:15:02.406Z,102131.62
2018-10-03T22:17:34.742Z,102129.85
2018-10-03T22:20:02.956Z,102132.33
2018-10-03T22:22:31.230Z,102131.68
2018-10-03T22:24:59.388Z,102135.21
2018-10-03T22:27:27.613Z,102136.25
2018-10-03T22:29:55.808Z,102138.28
2018-10-03T22:32:24.058Z,102134.97
2018-10-03T22:34:52.253Z,102135.56
2018-10-03T22:37:20.476Z,102132.09
2018-10-03T22:39:48.690Z,102130.22
2018-10-03T22:42:18.976Z,102133.34
2018-10-03T22:44:47.212Z,102127.31
2018-10-03T22:47:15.436Z,102136.92
2018-10-03T22:49:43.665Z,102135.25
2018-10-03T22:52:11.876Z,102142.28
2018-10-03T22:54:40.153Z,102140.19
2018-10-03T22:57:08.332Z,102138.20
2018-10-03T22:59:36.520Z,102138.41
2018-10-03T23:02:04.737Z,102139.20
2018-10-03T23:04:32.936Z,102143.33
2018-10-03T23:07:01.163Z,102146.45
2018-10-03T23:09:29.348Z,102159.23
2018-10-03T23:11:57.538Z,102154.31
2018-10-03T23:14:25.715Z,102162.81
2018-10-03T23:16:53.959Z,102159.39
2018-10-03T23:19:22.142Z,102166.70
2018-10-03T23:21:50.315Z,102160.22
2018-10-03T23:24:18.537Z,102165.00
2018-10-03T23:26:46.786Z,102165.66
2018-10-03T23:29:14.956Z,102164.88
2018-10-03T23:31:43.141Z,102170.52
2018-10-03T23:34:11.345Z,102171.07
2018-10-03T23:36:39.513Z,102174.35
2018-10-03T23:39:09.269Z,102168.16
2018-10-03T23:41:37.757Z,102166.48
2018-10-03T23:44:05.936Z,102164.36
2018-10-03T23:46:34.289Z,102173.99
2018-10-03T23:49:02.460Z,102169.77
2018-10-03T23:51:30.640Z,102170.52
2018-10-03T23:53:58.843Z,102173.19
2018-10-03T23:56:27.025Z,102163.06
2018-10-03T23:58:55.190Z,102175.63
